sensor_id;sensor_type;location;lat;lon;timestamp;temperature;humidity
46890;DHT22;32625;51.080;16.970;2023-01-08T00:00:12;3.10;99.90
46890;DHT22;32625;51.080;16.970;2023-01-08T00:02:39;3.00;99.90
46890;DHT22;32625;51.080;16.970;2023-01-08T00:05:07;3.00;99.90
46890;DHT22;32625;51.080;16.970;2023-01-08T00:07:34;3.00;99.90
46890;DHT22;32625;51.080;16.970;2023-01-08T00:10:01;3.00;99.90
46890;DHT22;32625;51.080;16.970;2023-01-08T00:12:28;3.10;99.90
46890;DHT22;32625;51.080;16.970;2023-01-08T00:14:55;3.00;99.90
46890;DHT22;32625;51.080;16.970;2023-01-08T00:17:22;3.00;99.90
46890;DHT22;32625;51.080;16.970;2023-01-08T00:19:49;3.00;99.90
46890;DHT22;32625;51.080;16.970;2023-01-08T00:22:16;2.90;99.90
46890;DHT22;32625;51.080;16.970;2023-01-08T00:24:43;2.90;99.90
46890;DHT22;32625;51.080;16.970;2023-01-08T00:27:10;2.90;99.90
46890;DHT22;32625;51.080;16.970;2023-01-08T00:29:37;2.80;99.90
46890;DHT22;32625;51.080;16.970;2023-01-08T00:32:05;2.80;99.90
46890;DHT22;32625;51.080;16.970;2023-01-08T00:34:32;2.70;99.90
46890;DHT22;32625;51.080;16.970;2023-01-08T00:36:59;2.70;99.90
46890;DHT22;32625;51.080;16.970;2023-01-08T00:39:26;2.70;99.90
46890;DHT22;32625;51.080;16.970;2023-01-08T00:41:53;2.60;99.90
46890;DHT22;32625;51.080;16.970;2023-01-08T00:44:20;2.70;99.90
46890;DHT22;32625;51.080;16.970;2023-01-08T00:46:47;2.60;99.90
46890;DHT22;32625;51.080;16.970;2023-01-08T00:49:14;2.50;99.90
46890;DHT22;32625;51.080;16.970;2023-01-08T00:51:41;2.50;99.90
46890;DHT22;32625;51.080;16.970;2023-01-08T00:54:10;2.50;99.90
46890;DHT22;32625;51.080;16.970;2023-01-08T00:56:37;2.40;99.90
46890;DHT22;32625;51.080;16.970;2023-01-08T00:59:04;2.40;99.90
46890;DHT22;32625;51.080;16.970;2023-01-08T01:01:31;2.40;99.90
46890;DHT22;32625;51.080;16.970;2023-01-08T01:03:59;2.40;99.90
46890;DHT22;32625;51.080;16.970;2023-01-08T01:06:26;2.40;99.90
46890;DHT22;32625;51.080;16.970;2023-01-08T01:08:53;2.30;99.90
46890;DHT22;32625;51.080;16.970;2023-01-08T01:11:23;2.30;99.90
46890;DHT22;32625;51.080;16.970;2023-01-08T01:13:51;2.40;99.90
46890;DHT22;32625;51.080;16.970;2023-01-08T01:16:18;2.30;99.90
46890;DHT22;32625;51.080;16.970;2023-01-08T01:18:45;2.30;99.90
46890;DHT22;32625;51.080;16.970;2023-01-08T01:21:25;2.30;99.90
46890;DHT22;32625;51.080;16.970;2023-01-08T01:23:55;2.30;99.90
46890;DHT22;32625;51.080;16.970;2023-01-08T01:26:22;2.30;99.90
46890;DHT22;32625;51.080;16.970;2023-01-08T01:28:51;2.40;99.90
46890;DHT22;32625;51.080;16.970;2023-01-08T01:31:19;2.40;99.90
46890;DHT22;32625;51.080;16.970;2023-01-08T01:33:47;2.40;99.90
46890;DHT22;32625;51.080;16.970;2023-01-08T01:36:15;2.40;99.90
46890;DHT22;32625;51.080;16.970;2023-01-08T01:38:44;2.30;99.90
46890;DHT22;32625;51.080;16.970;2023-01-08T01:44:00;2.20;99.90
46890;DHT22;32625;51.080;16.970;2023-01-08T01:46:44;2.30;99.90
46890;DHT22;32625;51.080;16.970;2023-01-08T01:49:16;2.40;99.90
46890;DHT22;32625;51.080;16.970;2023-01-08T01:51:48;2.30;99.90
46890;DHT22;32625;51.080;16.970;2023-01-08T01:54:17;2.20;99.90
46890;DHT22;32625;51.080;16.970;2023-01-08T01:56:45;2.20;99.90
46890;DHT22;32625;51.080;16.970;2023-01-08T01:59:12;2.20;99.90
46890;DHT22;32625;51.080;16.970;2023-01-08T02:01:40;2.20;99.90
46890;DHT22;32625;51.080;16.970;2023-01-08T02:04:10;2.10;99.90
46890;DHT22;32625;51.080;16.970;2023-01-08T02:06:45;2.10;99.90
46890;DHT22;32625;51.080;16.970;2023-01-08T02:09:39;2.20;99.90
46890;DHT22;32625;51.080;16.970;2023-01-08T02:18:07;2.10;99.90
46890;DHT22;32625;51.080;16.970;2023-01-08T02:21:24;2.10;99.90
46890;DHT22;32625;51.080;16.970;2023-01-08T02:26:33;2.00;99.90
46890;DHT22;32625;51.080;16.970;2023-01-08T02:29:08;2.00;99.90
46890;DHT22;32625;51.080;16.970;2023-01-08T02:31:37;2.00;99.90
46890;DHT22;32625;51.080;16.970;2023-01-08T02:34:05;2.00;99.90
46890;DHT22;32625;51.080;16.970;2023-01-08T02:36:47;1.90;99.90
46890;DHT22;32625;51.080;16.970;2023-01-08T02:45:10;1.90;99.90
46890;DHT22;32625;51.080;16.970;2023-01-08T02:53:29;1.90;99.90
46890;DHT22;32625;51.080;16.970;2023-01-08T02:56:04;2.00;99.90
46890;DHT22;32625;51.080;16.970;2023-01-08T02:58:34;1.90;99.90
46890;DHT22;32625;51.080;16.970;2023-01-08T03:01:05;1.80;99.90
46890;DHT22;32625;51.080;16.970;2023-01-08T03:03:34;1.80;99.90
46890;DHT22;32625;51.080;16.970;2023-01-08T03:06:08;1.90;99.90
46890;DHT22;32625;51.080;16.970;2023-01-08T03:08:39;1.90;99.90
46890;DHT22;32625;51.080;16.970;2023-01-08T03:11:10;1.80;99.90
46890;DHT22;32625;51.080;16.970;2023-01-08T03:16:24;1.80;99.90
46890;DHT22;32625;51.080;16.970;2023-01-08T03:19:14;1.70;99.90
46890;DHT22;32625;51.080;16.970;2023-01-08T03:21:44;1.70;99.90
46890;DHT22;32625;51.080;16.970;2023-01-08T03:24:14;1.70;99.90
46890;DHT22;32625;51.080;16.970;2023-01-08T03:26:44;1.60;99.90
46890;DHT22;32625;51.080;16.970;2023-01-08T03:29:16;1.60;99.90
46890;DHT22;32625;51.080;16.970;2023-01-08T03:31:45;1.60;99.90
46890;DHT22;32625;51.080;16.970;2023-01-08T03:34:15;1.60;99.90
46890;DHT22;32625;51.080;16.970;2023-01-08T03:36:46;1.50;99.90
46890;DHT22;32625;51.080;16.970;2023-01-08T03:39:27;1.60;99.90
46890;DHT22;32625;51.080;16.970;2023-01-08T03:41:59;1.40;99.90
46890;DHT22;32625;51.080;16.970;2023-01-08T03:44:27;1.50;99.90
46890;DHT22;32625;51.080;16.970;2023-01-08T03:46:55;1.50;99.90
46890;DHT22;32625;51.080;16.970;2023-01-08T03:49:25;1.50;99.90
46890;DHT22;32625;51.080;16.970;2023-01-08T03:51:54;1.50;99.90
46890;DHT22;32625;51.080;16.970;2023-01-08T03:54:34;1.50;99.90
46890;DHT22;32625;51.080;16.970;2023-01-08T03:57:01;1.60;99.90
46890;DHT22;32625;51.080;16.970;2023-01-08T03:59:29;1.70;99.90
46890;DHT22;32625;51.080;16.970;2023-01-08T04:01:56;1.70;99.90
46890;DHT22;32625;51.080;16.970;2023-01-08T04:04:24;1.80;99.90
46890;DHT22;32625;51.080;16.970;2023-01-08T04:06:51;1.80;99.90
46890;DHT22;32625;51.080;16.970;2023-01-08T04:09:19;1.80;99.90
46890;DHT22;32625;51.080;16.970;2023-01-08T04:11:46;1.80;99.90
46890;DHT22;32625;51.080;16.970;2023-01-08T04:14:13;1.80;99.90
46890;DHT22;32625;51.080;16.970;2023-01-08T04:16:41;1.90;99.90
46890;DHT22;32625;51.080;16.970;2023-01-08T04:19:12;1.90;99.90
46890;DHT22;32625;51.080;16.970;2023-01-08T04:21:39;1.90;99.90
46890;DHT22;32625;51.080;16.970;2023-01-08T04:24:07;1.90;99.90
46890;DHT22;32625;51.080;16.970;2023-01-08T04:26:34;1.90;99.90
46890;DHT22;32625;51.080;16.970;2023-01-08T04:29:01;1.90;99.90
46890;DHT22;32625;51.080;16.970;2023-01-08T04:31:30;1.90;99.90
46890;DHT22;32625;51.080;16.970;2023-01-08T04:33:57;1.90;99.90
46890;DHT22;32625;51.080;16.970;2023-01-08T04:36:24;1.90;99.90
46890;DHT22;32625;51.080;16.970;2023-01-08T04:38:51;1.90;99.90
46890;DHT22;32625;51.080;16.970;2023-01-08T04:41:18;1.80;99.90
46890;DHT22;32625;51.080;16.970;2023-01-08T04:43:46;1.80;99.90
46890;DHT22;32625;51.080;16.970;2023-01-08T04:46:13;1.80;99.90
46890;DHT22;32625;51.080;16.970;2023-01-08T04:48:40;1.80;99.90
46890;DHT22;32625;51.080;16.970;2023-01-08T04:51:07;1.90;99.90
46890;DHT22;32625;51.080;16.970;2023-01-08T04:53:36;1.90;99.90
46890;DHT22;32625;51.080;16.970;2023-01-08T04:56:08;1.90;99.90
46890;DHT22;32625;51.080;16.970;2023-01-08T04:58:36;1.90;99.90
46890;DHT22;32625;51.080;16.970;2023-01-08T05:01:11;1.90;99.90
46890;DHT22;32625;51.080;16.970;2023-01-08T05:03:39;1.90;99.90
46890;DHT22;32625;51.080;16.970;2023-01-08T05:06:06;1.90;99.90
46890;DHT22;32625;51.080;16.970;2023-01-08T05:08:34;1.90;99.90
46890;DHT22;32625;51.080;16.970;2023-01-08T05:11:01;1.90;99.90
46890;DHT22;32625;51.080;16.970;2023-01-08T05:13:29;1.90;99.90
46890;DHT22;32625;51.080;16.970;2023-01-08T05:15:59;1.90;99.90
46890;DHT22;32625;51.080;16.970;2023-01-08T05:18:28;1.90;99.90
46890;DHT22;32625;51.080;16.970;2023-01-08T05:20:59;1.80;99.90
46890;DHT22;32625;51.080;16.970;2023-01-08T05:23:29;1.80;99.90
46890;DHT22;32625;51.080;16.970;2023-01-08T05:25:57;1.80;99.90
46890;DHT22;32625;51.080;16.970;2023-01-08T05:28:25;1.80;99.90
46890;DHT22;32625;51.080;16.970;2023-01-08T05:30:52;1.80;99.90
46890;DHT22;32625;51.080;16.970;2023-01-08T05:33:20;1.80;99.90
46890;DHT22;32625;51.080;16.970;2023-01-08T05:35:48;1.80;99.90
46890;DHT22;32625;51.080;16.970;2023-01-08T05:38:15;1.90;99.90
46890;DHT22;32625;51.080;16.970;2023-01-08T05:40:42;1.80;99.90
46890;DHT22;32625;51.080;16.970;2023-01-08T05:43:09;1.70;99.90
46890;DHT22;32625;51.080;16.970;2023-01-08T05:45:36;1.60;99.90
46890;DHT22;32625;51.080;16.970;2023-01-08T05:48:04;1.70;99.90
46890;DHT22;32625;51.080;16.970;2023-01-08T05:50:33;1.70;99.90
46890;DHT22;32625;51.080;16.970;2023-01-08T05:53:04;1.70;99.90
46890;DHT22;32625;51.080;16.970;2023-01-08T05:55:31;1.70;99.90
46890;DHT22;32625;51.080;16.970;2023-01-08T05:58:03;1.60;99.90
46890;DHT22;32625;51.080;16.970;2023-01-08T06:00:32;1.60;99.90
46890;DHT22;32625;51.080;16.970;2023-01-08T06:02:59;1.60;99.90
46890;DHT22;32625;51.080;16.970;2023-01-08T06:05:26;1.50;99.90
46890;DHT22;32625;51.080;16.970;2023-01-08T06:07:53;1.50;99.90
46890;DHT22;32625;51.080;16.970;2023-01-08T06:10:20;1.50;99.90
46890;DHT22;32625;51.080;16.970;2023-01-08T06:12:47;1.50;99.90
46890;DHT22;32625;51.080;16.970;2023-01-08T06:15:15;1.40;99.90
46890;DHT22;32625;51.080;16.970;2023-01-08T06:17:42;1.40;99.90
46890;DHT22;32625;51.080;16.970;2023-01-08T06:20:10;1.50;99.90
46890;DHT22;32625;51.080;16.970;2023-01-08T06:22:37;1.60;99.90
46890;DHT22;32625;51.080;16.970;2023-01-08T06:25:05;1.60;99.90
46890;DHT22;32625;51.080;16.970;2023-01-08T06:27:32;1.50;99.90
46890;DHT22;32625;51.080;16.970;2023-01-08T06:29:59;1.50;99.90
46890;DHT22;32625;51.080;16.970;2023-01-08T06:32:26;1.50;99.90
46890;DHT22;32625;51.080;16.970;2023-01-08T06:34:53;1.50;99.90
46890;DHT22;32625;51.080;16.970;2023-01-08T06:37:20;1.50;99.90
46890;DHT22;32625;51.080;16.970;2023-01-08T06:39:47;1.50;99.90
46890;DHT22;32625;51.080;16.970;2023-01-08T06:42:14;1.60;99.90
46890;DHT22;32625;51.080;16.970;2023-01-08T06:44:41;1.60;99.90
46890;DHT22;32625;51.080;16.970;2023-01-08T06:47:08;1.60;99.90
46890;DHT22;32625;51.080;16.970;2023-01-08T06:49:35;1.50;99.90
46890;DHT22;32625;51.080;16.970;2023-01-08T06:52:02;1.50;99.90
46890;DHT22;32625;51.080;16.970;2023-01-08T06:54:29;1.50;99.90
46890;DHT22;32625;51.080;16.970;2023-01-08T06:56:56;1.50;99.90
46890;DHT22;32625;51.080;16.970;2023-01-08T06:59:23;1.60;99.90
46890;DHT22;32625;51.080;16.970;2023-01-08T07:01:50;1.50;99.90
46890;DHT22;32625;51.080;16.970;2023-01-08T07:04:18;1.60;99.90
46890;DHT22;32625;51.080;16.970;2023-01-08T07:06:46;1.60;99.90
46890;DHT22;32625;51.080;16.970;2023-01-08T07:09:14;1.50;99.90
46890;DHT22;32625;51.080;16.970;2023-01-08T07:11:42;1.50;99.90
46890;DHT22;32625;51.080;16.970;2023-01-08T07:14:09;1.40;99.90
46890;DHT22;32625;51.080;16.970;2023-01-08T07:16:36;1.50;99.90
46890;DHT22;32625;51.080;16.970;2023-01-08T07:19:03;1.60;99.90
46890;DHT22;32625;51.080;16.970;2023-01-08T07:21:30;1.60;99.90
46890;DHT22;32625;51.080;16.970;2023-01-08T07:23:57;1.60;99.90
46890;DHT22;32625;51.080;16.970;2023-01-08T07:26:25;1.60;99.90
46890;DHT22;32625;51.080;16.970;2023-01-08T07:28:53;1.60;99.90
46890;DHT22;32625;51.080;16.970;2023-01-08T07:31:20;1.60;99.90
46890;DHT22;32625;51.080;16.970;2023-01-08T07:33:47;1.60;99.90
46890;DHT22;32625;51.080;16.970;2023-01-08T07:36:15;1.70;99.90
46890;DHT22;32625;51.080;16.970;2023-01-08T07:38:42;1.70;99.90
46890;DHT22;32625;51.080;16.970;2023-01-08T07:41:09;1.70;99.90
46890;DHT22;32625;51.080;16.970;2023-01-08T07:43:36;1.70;99.90
46890;DHT22;32625;51.080;16.970;2023-01-08T07:46:03;1.50;99.90
46890;DHT22;32625;51.080;16.970;2023-01-08T07:48:31;1.50;99.90
46890;DHT22;32625;51.080;16.970;2023-01-08T07:51:03;1.50;99.90
46890;DHT22;32625;51.080;16.970;2023-01-08T07:53:30;1.50;99.90
46890;DHT22;32625;51.080;16.970;2023-01-08T07:56:02;1.60;99.90
46890;DHT22;32625;51.080;16.970;2023-01-08T07:58:30;1.60;99.90
46890;DHT22;32625;51.080;16.970;2023-01-08T08:00:57;1.60;99.90
46890;DHT22;32625;51.080;16.970;2023-01-08T08:03:25;1.60;99.90
46890;DHT22;32625;51.080;16.970;2023-01-08T08:05:52;1.80;99.90
46890;DHT22;32625;51.080;16.970;2023-01-08T08:08:19;1.80;99.90
46890;DHT22;32625;51.080;16.970;2023-01-08T08:10:46;1.90;99.90
46890;DHT22;32625;51.080;16.970;2023-01-08T08:13:13;1.90;99.90
46890;DHT22;32625;51.080;16.970;2023-01-08T08:15:41;2.00;99.90
46890;DHT22;32625;51.080;16.970;2023-01-08T08:18:08;2.00;99.90
46890;DHT22;32625;51.080;16.970;2023-01-08T08:20:36;2.10;99.90
46890;DHT22;32625;51.080;16.970;2023-01-08T08:23:11;2.10;99.90
46890;DHT22;32625;51.080;16.970;2023-01-08T08:25:40;2.10;99.90
46890;DHT22;32625;51.080;16.970;2023-01-08T08:28:09;2.10;99.90
46890;DHT22;32625;51.080;16.970;2023-01-08T08:30:37;2.20;99.90
46890;DHT22;32625;51.080;16.970;2023-01-08T08:33:07;2.20;99.90
46890;DHT22;32625;51.080;16.970;2023-01-08T08:35:35;2.30;99.90
46890;DHT22;32625;51.080;16.970;2023-01-08T08:38:02;2.40;99.90
46890;DHT22;32625;51.080;16.970;2023-01-08T08:40:30;2.40;99.90
46890;DHT22;32625;51.080;16.970;2023-01-08T08:42:59;2.50;99.90
46890;DHT22;32625;51.080;16.970;2023-01-08T08:45:27;2.60;99.90
46890;DHT22;32625;51.080;16.970;2023-01-08T08:47:54;2.70;99.90
46890;DHT22;32625;51.080;16.970;2023-01-08T08:50:22;2.80;99.90
46890;DHT22;32625;51.080;16.970;2023-01-08T08:52:49;2.90;99.90
46890;DHT22;32625;51.080;16.970;2023-01-08T08:55:16;3.10;99.90
46890;DHT22;32625;51.080;16.970;2023-01-08T08:57:44;3.10;99.90
46890;DHT22;32625;51.080;16.970;2023-01-08T09:00:13;3.20;99.90
46890;DHT22;32625;51.080;16.970;2023-01-08T09:02:40;3.20;99.90
46890;DHT22;32625;51.080;16.970;2023-01-08T09:05:07;3.30;99.90
46890;DHT22;32625;51.080;16.970;2023-01-08T09:07:35;3.40;99.90
46890;DHT22;32625;51.080;16.970;2023-01-08T09:10:02;3.50;99.90
46890;DHT22;32625;51.080;16.970;2023-01-08T09:12:30;3.50;99.90
46890;DHT22;32625;51.080;16.970;2023-01-08T09:14:57;3.60;99.90
46890;DHT22;32625;51.080;16.970;2023-01-08T09:17:24;3.70;99.90
46890;DHT22;32625;51.080;16.970;2023-01-08T09:19:51;3.70;99.90
46890;DHT22;32625;51.080;16.970;2023-01-08T09:22:19;3.80;99.90
46890;DHT22;32625;51.080;16.970;2023-01-08T09:24:46;3.90;99.90
46890;DHT22;32625;51.080;16.970;2023-01-08T09:27:13;3.90;99.90
46890;DHT22;32625;51.080;16.970;2023-01-08T09:29:41;3.90;99.90
46890;DHT22;32625;51.080;16.970;2023-01-08T09:32:08;4.00;99.90
46890;DHT22;32625;51.080;16.970;2023-01-08T09:34:35;4.10;99.90
46890;DHT22;32625;51.080;16.970;2023-01-08T09:37:03;4.20;99.90
46890;DHT22;32625;51.080;16.970;2023-01-08T09:39:31;4.30;99.90
46890;DHT22;32625;51.080;16.970;2023-01-08T09:42:02;4.40;99.90
46890;DHT22;32625;51.080;16.970;2023-01-08T09:44:41;4.50;99.90
46890;DHT22;32625;51.080;16.970;2023-01-08T09:47:27;4.70;99.90
46890;DHT22;32625;51.080;16.970;2023-01-08T09:50:00;4.90;99.90
46890;DHT22;32625;51.080;16.970;2023-01-08T09:52:29;4.90;99.90
46890;DHT22;32625;51.080;16.970;2023-01-08T09:54:58;5.10;99.90
46890;DHT22;32625;51.080;16.970;2023-01-08T09:57:28;5.20;99.90
46890;DHT22;32625;51.080;16.970;2023-01-08T09:59:56;5.30;99.90
46890;DHT22;32625;51.080;16.970;2023-01-08T10:02:24;5.30;99.90
46890;DHT22;32625;51.080;16.970;2023-01-08T10:04:57;5.40;99.90
46890;DHT22;32625;51.080;16.970;2023-01-08T10:07:26;5.50;99.90
46890;DHT22;32625;51.080;16.970;2023-01-08T10:09:54;5.60;99.90
46890;DHT22;32625;51.080;16.970;2023-01-08T10:12:27;5.70;99.90
46890;DHT22;32625;51.080;16.970;2023-01-08T10:15:00;5.70;99.90
46890;DHT22;32625;51.080;16.970;2023-01-08T10:17:35;5.80;99.90
46890;DHT22;32625;51.080;16.970;2023-01-08T10:20:21;6.00;99.90
46890;DHT22;32625;51.080;16.970;2023-01-08T10:22:50;6.10;99.90
46890;DHT22;32625;51.080;16.970;2023-01-08T10:25:22;6.20;99.90
46890;DHT22;32625;51.080;16.970;2023-01-08T10:27:58;6.20;99.90
46890;DHT22;32625;51.080;16.970;2023-01-08T10:30:33;6.30;99.90
46890;DHT22;32625;51.080;16.970;2023-01-08T10:33:04;6.30;99.90
46890;DHT22;32625;51.080;16.970;2023-01-08T10:35:38;6.40;99.90
46890;DHT22;32625;51.080;16.970;2023-01-08T10:38:18;6.30;99.90
46890;DHT22;32625;51.080;16.970;2023-01-08T10:40:48;6.30;99.90
46890;DHT22;32625;51.080;16.970;2023-01-08T10:46:27;6.40;99.90
46890;DHT22;32625;51.080;16.970;2023-01-08T10:48:56;6.40;99.90
46890;DHT22;32625;51.080;16.970;2023-01-08T10:51:27;6.50;99.90
46890;DHT22;32625;51.080;16.970;2023-01-08T10:53:58;6.60;99.90
46890;DHT22;32625;51.080;16.970;2023-01-08T10:56:28;6.70;99.90
46890;DHT22;32625;51.080;16.970;2023-01-08T10:58:56;6.70;99.90
46890;DHT22;32625;51.080;16.970;2023-01-08T11:01:28;6.70;99.90
46890;DHT22;32625;51.080;16.970;2023-01-08T11:04:02;6.80;99.90
46890;DHT22;32625;51.080;16.970;2023-01-08T11:06:31;6.90;99.90
46890;DHT22;32625;51.080;16.970;2023-01-08T11:09:12;7.00;99.90
46890;DHT22;32625;51.080;16.970;2023-01-08T11:11:43;7.10;99.90
46890;DHT22;32625;51.080;16.970;2023-01-08T11:14:32;7.20;99.90
46890;DHT22;32625;51.080;16.970;2023-01-08T11:17:09;7.20;99.90
46890;DHT22;32625;51.080;16.970;2023-01-08T11:19:36;7.20;99.90
46890;DHT22;32625;51.080;16.970;2023-01-08T11:22:18;7.20;99.90
46890;DHT22;32625;51.080;16.970;2023-01-08T11:24:46;7.20;99.90
46890;DHT22;32625;51.080;16.970;2023-01-08T11:27:22;7.20;99.90
46890;DHT22;32625;51.080;16.970;2023-01-08T11:33:09;7.10;99.90
46890;DHT22;32625;51.080;16.970;2023-01-08T11:35:43;7.20;99.90
46890;DHT22;32625;51.080;16.970;2023-01-08T11:38:12;7.20;99.90
46890;DHT22;32625;51.080;16.970;2023-01-08T12:00:27;7.60;99.90
46890;DHT22;32625;51.080;16.970;2023-01-08T12:03:07;7.60;99.90
46890;DHT22;32625;51.080;16.970;2023-01-08T12:22:12;7.80;99.90
46890;DHT22;32625;51.080;16.970;2023-01-08T12:33:19;7.90;99.90
46890;DHT22;32625;51.080;16.970;2023-01-08T12:35:53;7.90;99.90
46890;DHT22;32625;51.080;16.970;2023-01-08T12:38:41;7.90;99.90
46890;DHT22;32625;51.080;16.970;2023-01-08T12:41:17;7.80;99.90
46890;DHT22;32625;51.080;16.970;2023-01-08T12:43:55;7.80;99.90
46890;DHT22;32625;51.080;16.970;2023-01-08T12:46:26;7.80;99.90
46890;DHT22;32625;51.080;16.970;2023-01-08T12:48:55;7.80;99.90
46890;DHT22;32625;51.080;16.970;2023-01-08T12:52:01;7.90;99.90
46890;DHT22;32625;51.080;16.970;2023-01-08T12:54:41;7.80;99.90
46890;DHT22;32625;51.080;16.970;2023-01-08T13:00:04;7.60;99.90
46890;DHT22;32625;51.080;16.970;2023-01-08T13:03:01;7.60;99.90
46890;DHT22;32625;51.080;16.970;2023-01-08T13:05:31;7.60;99.90
46890;DHT22;32625;51.080;16.970;2023-01-08T13:08:17;7.60;99.90
46890;DHT22;32625;51.080;16.970;2023-01-08T13:10:50;7.50;99.90
46890;DHT22;32625;51.080;16.970;2023-01-08T13:13:43;7.40;99.90
46890;DHT22;32625;51.080;16.970;2023-01-08T13:18:40;7.30;99.90
46890;DHT22;32625;51.080;16.970;2023-01-08T13:21:10;7.30;99.90
46890;DHT22;32625;51.080;16.970;2023-01-08T13:23:38;7.30;99.90
46890;DHT22;32625;51.080;16.970;2023-01-08T13:26:05;7.30;99.90
46890;DHT22;32625;51.080;16.970;2023-01-08T13:31:24;7.20;99.90
46890;DHT22;32625;51.080;16.970;2023-01-08T13:33:54;7.20;99.90
46890;DHT22;32625;51.080;16.970;2023-01-08T13:36:24;7.10;99.90
46890;DHT22;32625;51.080;16.970;2023-01-08T13:39:22;7.10;99.90
46890;DHT22;32625;51.080;16.970;2023-01-08T13:42:19;7.10;99.90
46890;DHT22;32625;51.080;16.970;2023-01-08T13:44:56;7.10;99.90
46890;DHT22;32625;51.080;16.970;2023-01-08T13:47:32;7.10;99.90
46890;DHT22;32625;51.080;16.970;2023-01-08T13:50:03;7.00;99.90
46890;DHT22;32625;51.080;16.970;2023-01-08T13:52:56;7.00;99.90
46890;DHT22;32625;51.080;16.970;2023-01-08T13:57:58;7.00;99.90
46890;DHT22;32625;51.080;16.970;2023-01-08T14:00:36;6.90;99.90
46890;DHT22;32625;51.080;16.970;2023-01-08T14:03:45;6.90;99.90
46890;DHT22;32625;51.080;16.970;2023-01-08T14:06:22;6.80;99.90
46890;DHT22;32625;51.080;16.970;2023-01-08T14:08:58;6.80;99.90
46890;DHT22;32625;51.080;16.970;2023-01-08T14:11:48;6.80;99.90
46890;DHT22;32625;51.080;16.970;2023-01-08T14:14:19;6.70;99.90
46890;DHT22;32625;51.080;16.970;2023-01-08T14:16:47;6.70;99.90
46890;DHT22;32625;51.080;16.970;2023-01-08T14:19:20;6.60;99.90
46890;DHT22;32625;51.080;16.970;2023-01-08T14:21:49;6.60;99.90
46890;DHT22;32625;51.080;16.970;2023-01-08T14:24:18;6.50;99.90
46890;DHT22;32625;51.080;16.970;2023-01-08T14:26:53;6.50;99.90
46890;DHT22;32625;51.080;16.970;2023-01-08T14:29:23;6.40;99.90
46890;DHT22;32625;51.080;16.970;2023-01-08T14:31:55;6.30;99.90
46890;DHT22;32625;51.080;16.970;2023-01-08T14:34:25;6.30;99.90
46890;DHT22;32625;51.080;16.970;2023-01-08T14:36:54;6.20;99.90
46890;DHT22;32625;51.080;16.970;2023-01-08T14:39:24;6.10;99.90
46890;DHT22;32625;51.080;16.970;2023-01-08T14:41:53;6.00;99.90
46890;DHT22;32625;51.080;16.970;2023-01-08T14:44:40;5.90;99.90
46890;DHT22;32625;51.080;16.970;2023-01-08T14:47:18;5.90;99.90
46890;DHT22;32625;51.080;16.970;2023-01-08T14:49:52;5.90;99.90
46890;DHT22;32625;51.080;16.970;2023-01-08T14:52:19;5.80;99.90
46890;DHT22;32625;51.080;16.970;2023-01-08T14:54:51;5.70;99.90
46890;DHT22;32625;51.080;16.970;2023-01-08T14:57:19;5.70;99.90
46890;DHT22;32625;51.080;16.970;2023-01-08T14:59:55;5.60;99.90
46890;DHT22;32625;51.080;16.970;2023-01-08T15:02:31;5.60;99.90
46890;DHT22;32625;51.080;16.970;2023-01-08T15:05:29;5.60;99.90
46890;DHT22;32625;51.080;16.970;2023-01-08T15:10:43;5.50;99.90
46890;DHT22;32625;51.080;16.970;2023-01-08T15:13:24;5.40;99.90
46890;DHT22;32625;51.080;16.970;2023-01-08T15:15:57;5.50;99.90
46890;DHT22;32625;51.080;16.970;2023-01-08T15:18:25;5.50;99.90
46890;DHT22;32625;51.080;16.970;2023-01-08T15:20:53;5.50;99.90
46890;DHT22;32625;51.080;16.970;2023-01-08T15:23:35;5.50;99.90
46890;DHT22;32625;51.080;16.970;2023-01-08T15:26:03;5.50;99.90
46890;DHT22;32625;51.080;16.970;2023-01-08T15:28:34;5.50;99.90
46890;DHT22;32625;51.080;16.970;2023-01-08T15:31:02;5.40;99.90
46890;DHT22;32625;51.080;16.970;2023-01-08T15:33:29;5.40;99.90
46890;DHT22;32625;51.080;16.970;2023-01-08T15:35:56;5.30;99.90
46890;DHT22;32625;51.080;16.970;2023-01-08T15:38:24;5.30;99.90
46890;DHT22;32625;51.080;16.970;2023-01-08T15:40:51;5.30;99.90
46890;DHT22;32625;51.080;16.970;2023-01-08T15:43:20;5.30;99.90
46890;DHT22;32625;51.080;16.970;2023-01-08T15:45:48;5.30;99.90
46890;DHT22;32625;51.080;16.970;2023-01-08T15:48:17;5.20;99.90
46890;DHT22;32625;51.080;16.970;2023-01-08T15:50:44;5.20;99.90
46890;DHT22;32625;51.080;16.970;2023-01-08T15:53:14;5.20;99.90
46890;DHT22;32625;51.080;16.970;2023-01-08T15:55:41;5.20;99.90
46890;DHT22;32625;51.080;16.970;2023-01-08T15:58:11;5.20;99.90
46890;DHT22;32625;51.080;16.970;2023-01-08T16:00:39;5.20;99.90
46890;DHT22;32625;51.080;16.970;2023-01-08T16:03:07;5.20;99.90
46890;DHT22;32625;51.080;16.970;2023-01-08T16:05:35;5.20;99.90
46890;DHT22;32625;51.080;16.970;2023-01-08T16:08:03;5.30;99.90
46890;DHT22;32625;51.080;16.970;2023-01-08T16:10:31;5.20;99.90
46890;DHT22;32625;51.080;16.970;2023-01-08T16:12:59;5.20;99.90
46890;DHT22;32625;51.080;16.970;2023-01-08T16:15:27;5.20;99.90
46890;DHT22;32625;51.080;16.970;2023-01-08T16:17:57;5.20;99.90
46890;DHT22;32625;51.080;16.970;2023-01-08T16:20:25;5.20;99.90
46890;DHT22;32625;51.080;16.970;2023-01-08T16:22:52;5.10;99.90
46890;DHT22;32625;51.080;16.970;2023-01-08T16:25:20;5.10;99.90
46890;DHT22;32625;51.080;16.970;2023-01-08T16:27:49;5.00;99.90
46890;DHT22;32625;51.080;16.970;2023-01-08T16:30:16;5.10;99.90
46890;DHT22;32625;51.080;16.970;2023-01-08T16:32:44;5.10;99.90
46890;DHT22;32625;51.080;16.970;2023-01-08T16:35:12;5.10;99.90
46890;DHT22;32625;51.080;16.970;2023-01-08T16:37:39;5.00;99.90
46890;DHT22;32625;51.080;16.970;2023-01-08T16:40:07;5.10;99.90
46890;DHT22;32625;51.080;16.970;2023-01-08T16:42:35;5.10;99.90
46890;DHT22;32625;51.080;16.970;2023-01-08T16:45:03;5.10;99.90
46890;DHT22;32625;51.080;16.970;2023-01-08T16:47:30;5.00;99.90
46890;DHT22;32625;51.080;16.970;2023-01-08T16:49:57;5.00;99.90
46890;DHT22;32625;51.080;16.970;2023-01-08T16:52:24;5.10;99.90
46890;DHT22;32625;51.080;16.970;2023-01-08T16:54:51;5.10;99.90
46890;DHT22;32625;51.080;16.970;2023-01-08T16:57:18;5.10;99.90
46890;DHT22;32625;51.080;16.970;2023-01-08T16:59:46;5.00;99.90
46890;DHT22;32625;51.080;16.970;2023-01-08T17:02:13;5.10;99.90
46890;DHT22;32625;51.080;16.970;2023-01-08T17:04:40;5.00;99.90
46890;DHT22;32625;51.080;16.970;2023-01-08T17:07:07;5.00;99.90
46890;DHT22;32625;51.080;16.970;2023-01-08T17:09:34;5.00;99.90
46890;DHT22;32625;51.080;16.970;2023-01-08T17:12:01;5.00;99.90
46890;DHT22;32625;51.080;16.970;2023-01-08T17:14:29;4.90;99.90
46890;DHT22;32625;51.080;16.970;2023-01-08T17:16:56;4.90;99.90
46890;DHT22;32625;51.080;16.970;2023-01-08T17:19:23;4.90;99.90